Hodgesville, Alabama
Current Conditions -  °F | °C
As of 1:53 PM on Thursday 29 Jan 2015 (Local Time) from KDHN Reporting Station
Clear Clear  
Wind Chill: 65°   Ceiling: Unl
Heat Index: 65°   Visibility: 10mi
Dew Point: 41°   Wind: 12mph
Humidity: 42%   Direction: 210°SSW
Pressure: 30.24"   Gusts: NA
Location:  31.2035°N, 85.4998°W
Report Text: KDHN 291953Z 21010KT 10SM CLR 18/05 A3024 RMK AO2 SLP237 T01830050
Loading
Personal Weather Stations






























Interactive Weather Map New forecast layout! Learn more

10-Day Weather Forecast

Advertisements
Track Severe Weather on mobile